Time;durP1;ratioP1;P1;durP2;ratioP2;P2;SDS_P1;SDS_P2;PMS_P1;PMS_P2;Temp;Humidity;BMP_temperature;BMP_pressure;BME280_temperature;BME280_humidity;BME280_pressure;Samples;Min_cycle;Max_cycle;Signal;HPM_P1;HPM_P2
2022/03/31 00:00:31;;;;;;;4.90;1.10;;;;;;;;;;4993246;28;20053;-63
2022/03/31 00:02:57;;;;;;;4.22;1.35;;;;;;;;;;4992561;28;20046;-63
2022/03/31 00:05:23;;;;;;;4.53;0.98;;;;;;;;;;4993203;28;20042;-63
2022/03/31 00:07:54;;;;;;;2.42;1.25;;;;;;;;;;5008180;28;20074;-63
2022/03/31 00:10:21;;;;;;;4.00;1.15;;;;;;;;;;4992373;28;20133;-63
2022/03/31 00:12:47;;;;;;;3.50;1.23;;;;;;;;;;4991695;28;20136;-63
2022/03/31 00:15:13;;;;;;;2.40;1.00;;;;;;;;;;4992837;28;20050;-63
2022/03/31 00:17:39;;;;;;;7.65;1.30;;;;;;;;;;4992453;28;20121;-63
2022/03/31 00:20:05;;;;;;;3.30;1.10;;;;;;;;;;4993248;28;20045;-63
2022/03/31 00:34:46;;;;;;;2.80;0.85;;;;;;;;;;4973199;28;20453;-63
2022/03/31 00:37:30;;;;;;;4.70;1.55;;;;;;;;;;4973360;28;20077;-63
2022/03/31 00:39:57;;;;;;;2.72;0.98;;;;;;;;;;4972743;28;20570;-63
2022/03/31 00:42:23;;;;;;;3.63;1.05;;;;;;;;;;4972751;28;20035;-63
2022/03/31 00:44:50;;;;;;;5.40;1.25;;;;;;;;;;4971383;28;20459;-63
2022/03/31 00:47:17;;;;;;;7.60;1.30;;;;;;;;;;4971310;28;20148;-63
2022/03/31 00:49:44;;;;;;;4.45;1.33;;;;;;;;;;4973303;28;20058;-63
2022/03/31 00:52:10;;;;;;;4.10;1.20;;;;;;;;;;4973176;28;20047;-63
2022/03/31 00:54:36;;;;;;;5.18;1.55;;;;;;;;;;4971127;28;20146;-63
2022/03/31 00:57:04;;;;;;;2.85;1.10;;;;;;;;;;4972920;28;20485;-63
2022/03/31 00:59:31;;;;;;;4.88;1.17;;;;;;;;;;4973202;28;20141;-63
2022/03/31 01:01:58;;;;;;;5.18;1.15;;;;;;;;;;4971162;28;20053;-63
2022/03/31 01:04:24;;;;;;;4.43;1.20;;;;;;;;;;4987804;28;20402;-63
2022/03/31 01:06:50;;;;;;;4.00;1.30;;;;;;;;;;4972721;28;20057;-63
2022/03/31 01:09:18;;;;;;;3.22;1.15;;;;;;;;;;4972453;28;20509;-63
2022/03/31 01:11:45;;;;;;;4.75;1.17;;;;;;;;;;4973832;28;20354;-63
2022/03/31 01:14:11;;;;;;;4.07;1.30;;;;;;;;;;4992388;28;20492;-63
2022/03/31 01:16:38;;;;;;;3.20;0.90;;;;;;;;;;4991731;28;20045;-63
2022/03/31 01:19:12;;;;;;;7.20;1.35;;;;;;;;;;4991854;28;20045;-63
2022/03/31 01:21:38;;;;;;;4.78;1.00;;;;;;;;;;4990951;28;20057;-63
2022/03/31 01:24:08;;;;;;;4.47;0.93;;;;;;;;;;4991509;28;20452;-63
2022/03/31 01:26:35;;;;;;;3.83;1.45;;;;;;;;;;4980615;28;20134;-63
2022/03/31 01:29:01;;;;;;;1.48;1.20;;;;;;;;;;4976027;28;20054;-63
2022/03/31 01:31:27;;;;;;;1.65;1.05;;;;;;;;;;4976276;28;20055;-63
2022/03/31 01:33:54;;;;;;;4.65;1.35;;;;;;;;;;4975109;28;20421;-63
2022/03/31 01:36:20;;;;;;;3.72;1.08;;;;;;;;;;4976485;28;20138;-63
2022/03/31 01:38:49;;;;;;;4.43;1.20;;;;;;;;;;4976419;28;20043;-63
2022/03/31 01:41:15;;;;;;;1.75;1.05;;;;;;;;;;4976242;28;20578;-63
2022/03/31 01:43:41;;;;;;;2.75;1.10;;;;;;;;;;4976265;28;20086;-63
2022/03/31 01:46:08;;;;;;;2.40;1.60;;;;;;;;;;4976091;28;20062;-63
2022/03/31 01:48:34;;;;;;;2.53;1.48;;;;;;;;;;4975971;28;20081;-63
2022/03/31 01:51:04;;;;;;;2.90;1.42;;;;;;;;;;4976488;28;20477;-63
2022/03/31 01:53:30;;;;;;;3.08;1.13;;;;;;;;;;4976491;28;20043;-63
2022/03/31 01:55:56;;;;;;;2.78;1.38;;;;;;;;;;4990441;28;20389;-63
2022/03/31 01:58:23;;;;;;;2.05;1.30;;;;;;;;;;4991068;28;20047;-63
2022/03/31 02:00:50;;;;;;;4.35;1.20;;;;;;;;;;4976253;28;20058;-63
2022/03/31 02:03:16;;;;;;;4.78;1.60;;;;;;;;;;4974358;28;20051;-63
2022/03/31 02:05:43;;;;;;;4.75;1.25;;;;;;;;;;4976089;28;20681;-63
2022/03/31 02:08:09;;;;;;;2.78;1.48;;;;;;;;;;4975790;28;20042;-63
2022/03/31 02:10:35;;;;;;;2.85;1.40;;;;;;;;;;4990395;28;20135;-63
2022/03/31 02:13:01;;;;;;;4.45;1.38;;;;;;;;;;4976001;28;20425;-63
2022/03/31 02:15:31;;;;;;;2.80;1.50;;;;;;;;;;4976046;28;20042;-63
2022/03/31 02:17:57;;;;;;;3.70;1.58;;;;;;;;;;4975275;28;20058;-63
2022/03/31 02:20:25;;;;;;;4.78;1.20;;;;;;;;;;4975718;28;20154;-63
2022/03/31 02:22:51;;;;;;;5.20;1.50;;;;;;;;;;4975908;28;20106;-63
2022/03/31 02:25:17;;;;;;;4.53;1.30;;;;;;;;;;4976183;28;20461;-63
2022/03/31 02:27:43;;;;;;;4.70;1.70;;;;;;;;;;4994686;28;20046;-63
2022/03/31 02:30:10;;;;;;;5.68;1.73;;;;;;;;;;4995357;28;20085;-63
2022/03/31 02:32:37;;;;;;;5.43;1.80;;;;;;;;;;4994592;28;20065;-63
2022/03/31 02:35:04;;;;;;;4.00;1.63;;;;;;;;;;4995173;28;20049;-63
2022/03/31 02:37:30;;;;;;;5.05;1.60;;;;;;;;;;4994964;28;20069;-63
2022/03/31 02:39:56;;;;;;;4.60;1.85;;;;;;;;;;4994083;28;20121;-63
2022/03/31 02:42:22;;;;;;;3.13;1.40;;;;;;;;;;4993646;28;20493;-63
2022/03/31 02:44:48;;;;;;;4.90;2.00;;;;;;;;;;4994580;28;20046;-63
2022/03/31 02:47:14;;;;;;;6.50;2.08;;;;;;;;;;4992615;28;20129;-63
2022/03/31 02:49:41;;;;;;;7.22;2.20;;;;;;;;;;4994617;28;20046;-63
2022/03/31 02:52:07;;;;;;;6.43;2.00;;;;;;;;;;4994837;28;20500;-63
2022/03/31 02:57:18;;;;;;;4.15;1.67;;;;;;;;;;4994353;28;20058;-63
2022/03/31 02:59:45;;;;;;;6.00;2.30;;;;;;;;;;4994813;28;20042;-63
2022/03/31 03:02:11;;;;;;;7.32;2.40;;;;;;;;;;4994083;28;20038;-63
2022/03/31 03:04:38;;;;;;;5.15;2.20;;;;;;;;;;4994635;28;20132;-63
2022/03/31 03:07:04;;;;;;;6.00;2.03;;;;;;;;;;4994544;28;20049;-63
2022/03/31 03:09:30;;;;;;;3.08;2.05;;;;;;;;;;5008881;28;20050;-63
2022/03/31 03:11:56;;;;;;;5.07;2.40;;;;;;;;;;4994666;28;20077;-63
2022/03/31 03:14:22;;;;;;;7.63;3.25;;;;;;;;;;4994432;28;20058;-63
2022/03/31 03:16:48;;;;;;;3.70;2.53;;;;;;;;;;4993633;28;20049;-63
2022/03/31 03:19:14;;;;;;;3.72;2.97;;;;;;;;;;4993023;28;20132;-63
2022/03/31 03:21:41;;;;;;;9.50;3.45;;;;;;;;;;4994330;28;20034;-63
2022/03/31 03:24:07;;;;;;;7.10;3.47;;;;;;;;;;4993553;28;20046;-63
2022/03/31 03:26:33;;;;;;;7.78;3.90;;;;;;;;;;4997389;28;20051;-63
2022/03/31 03:29:00;;;;;;;6.68;3.83;;;;;;;;;;4973143;28;20047;-63
2022/03/31 03:31:26;;;;;;;8.07;4.68;;;;;;;;;;4973952;28;20101;-63
2022/03/31 03:33:52;;;;;;;7.85;4.18;;;;;;;;;;4974041;28;20054;-63
2022/03/31 03:36:18;;;;;;;12.55;4.78;;;;;;;;;;4974121;28;20089;-63
2022/03/31 03:38:44;;;;;;;9.95;5.90;;;;;;;;;;4973498;28;20073;-63
2022/03/31 03:41:11;;;;;;;10.25;5.18;;;;;;;;;;4974520;28;20377;-63
2022/03/31 03:43:37;;;;;;;8.65;5.65;;;;;;;;;;4973454;28;20050;-63
2022/03/31 03:46:04;;;;;;;10.68;5.95;;;;;;;;;;4973574;28;20042;-63
2022/03/31 03:48:30;;;;;;;7.70;5.55;;;;;;;;;;4974032;28;20046;-63
2022/03/31 03:50:56;;;;;;;10.85;6.22;;;;;;;;;;4973702;28;20113;-63
2022/03/31 03:53:22;;;;;;;12.63;6.93;;;;;;;;;;4972432;28;20691;-63
2022/03/31 03:55:48;;;;;;;11.13;7.07;;;;;;;;;;4973868;28;20129;-63
2022/03/31 03:58:14;;;;;;;9.75;6.65;;;;;;;;;;4973818;28;20038;-63
2022/03/31 04:00:41;;;;;;;11.57;7.35;;;;;;;;;;4973454;28;20039;-63
2022/03/31 04:03:07;;;;;;;10.20;7.47;;;;;;;;;;4973948;28;20054;-63
2022/03/31 04:05:33;;;;;;;13.07;8.95;;;;;;;;;;4973906;28;20038;-63
2022/03/31 04:07:59;;;;;;;10.48;8.05;;;;;;;;;;4973083;28;20432;-63
2022/03/31 04:10:25;;;;;;;14.52;8.38;;;;;;;;;;4973666;28;20038;-63
2022/03/31 04:12:51;;;;;;;9.57;7.18;;;;;;;;;;4972354;28;20186;-64
2022/03/31 04:15:17;;;;;;;13.15;7.75;;;;;;;;;;4971685;28;20453;-63
2022/03/31 04:17:44;;;;;;;12.32;7.50;;;;;;;;;;4972126;28;20489;-63
2022/03/31 04:20:11;;;;;;;10.35;7.35;;;;;;;;;;4973802;28;20094;-63
2022/03/31 04:22:37;;;;;;;8.77;7.05;;;;;;;;;;4973211;28;20090;-63
2022/03/31 04:25:07;;;;;;;8.43;6.38;;;;;;;;;;4973455;28;20050;-63
2022/03/31 04:27:37;;;;;;;7.95;6.15;;;;;;;;;;4992819;28;20665;-63
2022/03/31 04:30:04;;;;;;;8.93;6.30;;;;;;;;;;4992450;28;20493;-63
2022/03/31 04:32:30;;;;;;;7.38;5.97;;;;;;;;;;4993043;28;20050;-63
2022/03/31 04:34:56;;;;;;;10.27;6.28;;;;;;;;;;4991371;28;20049;-63
2022/03/31 04:37:22;;;;;;;7.43;6.30;;;;;;;;;;4991434;28;20465;-63
2022/03/31 04:39:48;;;;;;;8.98;7.00;;;;;;;;;;4992482;28;20510;-63
2022/03/31 04:42:14;;;;;;;8.10;6.15;;;;;;;;;;4989404;28;20027;-63
2022/03/31 04:44:40;;;;;;;8.07;6.13;;;;;;;;;;4972025;28;20046;-63
2022/03/31 04:47:07;;;;;;;9.30;5.97;;;;;;;;;;4972868;28;20055;-63
2022/03/31 04:49:34;;;;;;;7.35;6.10;;;;;;;;;;4988108;28;20401;-63
2022/03/31 04:52:00;;;;;;;7.88;6.35;;;;;;;;;;4972653;28;20070;-63
2022/03/31 04:54:26;;;;;;;7.75;6.47;;;;;;;;;;4973127;28;20039;-63
2022/03/31 04:56:53;;;;;;;8.70;6.40;;;;;;;;;;4972342;28;20039;-63
2022/03/31 04:59:19;;;;;;;9.73;7.93;;;;;;;;;;4972541;28;20039;-63
2022/03/31 05:01:45;;;;;;;8.85;6.25;;;;;;;;;;4973021;28;20121;-63
2022/03/31 05:04:12;;;;;;;7.95;5.97;;;;;;;;;;4971724;28;20090;-63
2022/03/31 05:06:38;;;;;;;8.85;6.13;;;;;;;;;;4972200;28;20046;-63
2022/03/31 05:09:04;;;;;;;8.80;6.82;;;;;;;;;;4971411;28;20047;-63
2022/03/31 05:11:30;;;;;;;7.03;5.75;;;;;;;;;;4972453;28;20043;-63
2022/03/31 05:13:56;;;;;;;6.85;5.72;;;;;;;;;;4972356;28;20484;-63
2022/03/31 05:16:22;;;;;;;7.93;6.22;;;;;;;;;;4972328;28;20050;-63
2022/03/31 05:18:48;;;;;;;7.55;6.10;;;;;;;;;;4972658;28;20043;-63
2022/03/31 05:21:15;;;;;;;7.22;5.72;;;;;;;;;;4972099;28;20045;-63
2022/03/31 05:23:41;;;;;;;9.43;5.93;;;;;;;;;;4972881;28;20042;-63
2022/03/31 05:26:07;;;;;;;7.30;6.13;;;;;;;;;;4980452;28;20042;-63
2022/03/31 05:28:33;;;;;;;9.73;6.63;;;;;;;;;;4991593;28;20539;-63
2022/03/31 05:30:59;;;;;;;6.60;5.88;;;;;;;;;;4992174;28;20045;-63
2022/03/31 05:33:25;;;;;;;6.75;5.20;;;;;;;;;;4992076;28;20449;-63
2022/03/31 05:35:51;;;;;;;6.38;5.47;;;;;;;;;;4991119;28;20128;-63
2022/03/31 05:38:17;;;;;;;6.47;5.38;;;;;;;;;;4990453;28;20046;-63
2022/03/31 05:40:43;;;;;;;7.05;5.43;;;;;;;;;;4991964;28;20771;-63
2022/03/31 05:43:09;;;;;;;6.95;5.60;;;;;;;;;;4991123;28;20093;-63
2022/03/31 05:45:36;;;;;;;6.55;5.22;;;;;;;;;;5007007;28;20046;-63
2022/03/31 05:48:02;;;;;;;6.38;5.68;;;;;;;;;;4991777;28;20102;-63
2022/03/31 05:50:28;;;;;;;6.57;5.45;;;;;;;;;;4990088;28;20517;-64
2022/03/31 05:52:54;;;;;;;7.13;6.05;;;;;;;;;;4995729;28;20046;-63
2022/03/31 05:55:21;;;;;;;6.55;5.85;;;;;;;;;;4995657;28;20053;-63
2022/03/31 05:57:47;;;;;;;7.00;5.88;;;;;;;;;;4986817;28;20121;-63
2022/03/31 06:00:15;;;;;;;7.05;6.30;;;;;;;;;;4980858;28;20039;-63
2022/03/31 06:02:40;;;;;;;7.22;5.78;;;;;;;;;;4991809;28;20031;-63
2022/03/31 06:05:07;;;;;;;7.32;6.18;;;;;;;;;;4974134;28;20039;-63
2022/03/31 06:07:34;;;;;;;7.20;6.10;;;;;;;;;;4971439;28;20397;-63
2022/03/31 06:10:00;;;;;;;7.93;6.22;;;;;;;;;;4971084;28;20488;-63
2022/03/31 06:12:26;;;;;;;9.60;7.18;;;;;;;;;;4995101;28;20043;-64
2022/03/31 06:14:52;;;;;;;9.25;7.20;;;;;;;;;;4974213;28;20082;-63
2022/03/31 06:17:18;;;;;;;8.55;6.50;;;;;;;;;;4972573;28;20050;-62
2022/03/31 06:19:44;;;;;;;7.30;6.40;;;;;;;;;;4979179;28;20658;-62
2022/03/31 06:22:10;;;;;;;8.05;7.10;;;;;;;;;;4983405;28;20702;-64
2022/03/31 06:24:36;;;;;;;7.93;7.07;;;;;;;;;;4986907;28;20038;-63
2022/03/31 06:27:02;;;;;;;7.90;7.10;;;;;;;;;;4982119;28;20046;-65
2022/03/31 06:29:30;;;;;;;9.50;8.20;;;;;;;;;;4992417;28;20074;-62
2022/03/31 06:31:56;;;;;;;8.07;7.25;;;;;;;;;;4975439;28;20077;-65
2022/03/31 06:34:23;;;;;;;8.57;7.57;;;;;;;;;;4984631;28;20061;-63
2022/03/31 06:36:49;;;;;;;7.85;6.82;;;;;;;;;;4986459;28;20045;-65
2022/03/31 06:39:15;;;;;;;7.97;7.07;;;;;;;;;;4977396;28;20050;-65
2022/03/31 06:41:44;;;;;;;9.00;6.85;;;;;;;;;;4987145;28;20085;-66
2022/03/31 06:44:13;;;;;;;9.05;7.00;;;;;;;;;;4980456;28;20073;-67
2022/03/31 06:46:40;;;;;;;10.10;7.28;;;;;;;;;;4985388;28;20046;-66
2022/03/31 06:49:06;;;;;;;6.30;5.68;;;;;;;;;;4977043;28;20042;-67
2022/03/31 06:51:32;;;;;;;7.15;5.97;;;;;;;;;;4982278;28;20486;-65
2022/03/31 06:53:59;;;;;;;7.40;6.00;;;;;;;;;;4983730;28;20039;-63
2022/03/31 06:56:27;;;;;;;8.40;6.47;;;;;;;;;;4983462;28;20042;-64
2022/03/31 06:58:57;;;;;;;7.18;6.18;;;;;;;;;;4979661;28;20046;-65
2022/03/31 07:01:23;;;;;;;6.80;6.10;;;;;;;;;;4989831;28;20038;-66
2022/03/31 07:03:50;;;;;;;7.03;6.03;;;;;;;;;;4984748;28;20038;-65
2022/03/31 07:06:16;;;;;;;6.85;6.15;;;;;;;;;;4981451;28;20050;-64
2022/03/31 07:08:42;;;;;;;6.75;6.00;;;;;;;;;;4983768;28;20157;-64
2022/03/31 07:11:09;;;;;;;6.30;5.70;;;;;;;;;;4974808;28;20068;-64
2022/03/31 07:13:35;;;;;;;6.70;5.70;;;;;;;;;;4988145;28;20124;-63
2022/03/31 07:16:01;;;;;;;6.38;5.72;;;;;;;;;;4985219;28;20069;-63
2022/03/31 07:18:27;;;;;;;8.35;6.15;;;;;;;;;;5000791;28;20034;-66
2022/03/31 07:20:54;;;;;;;6.55;5.78;;;;;;;;;;4988723;28;20121;-66
2022/03/31 07:23:25;;;;;;;6.20;5.60;;;;;;;;;;4976803;28;20385;-66
2022/03/31 07:25:52;;;;;;;7.22;6.22;;;;;;;;;;4984328;28;20118;-64
2022/03/31 07:28:18;;;;;;;7.10;6.13;;;;;;;;;;4980882;28;20047;-64
2022/03/31 07:30:44;;;;;;;6.53;5.82;;;;;;;;;;4984362;28;20035;-64
2022/03/31 07:33:10;;;;;;;6.72;5.93;;;;;;;;;;4978774;28;20232;-64
2022/03/31 07:35:41;;;;;;;7.28;6.30;;;;;;;;;;5003859;28;20194;-66
2022/03/31 07:38:08;;;;;;;7.55;6.57;;;;;;;;;;4983316;28;20058;-66
2022/03/31 07:40:36;;;;;;;7.97;7.07;;;;;;;;;;4982734;28;20113;-65
2022/03/31 07:43:02;;;;;;;9.93;7.47;;;;;;;;;;4986067;28;20057;-65
2022/03/31 07:45:29;;;;;;;8.40;7.43;;;;;;;;;;4989974;28;20073;-65
2022/03/31 07:47:55;;;;;;;8.95;7.90;;;;;;;;;;4976677;28;20046;-66
2022/03/31 07:50:22;;;;;;;9.65;7.63;;;;;;;;;;4986231;28;20047;-65
2022/03/31 07:52:49;;;;;;;9.52;8.20;;;;;;;;;;4983588;28;20054;-65
2022/03/31 07:55:16;;;;;;;8.80;6.97;;;;;;;;;;4981872;28;20049;-65
2022/03/31 07:57:42;;;;;;;10.55;8.30;;;;;;;;;;4984451;28;20166;-65
2022/03/31 08:00:09;;;;;;;8.75;7.47;;;;;;;;;;4978550;28;20038;-64
2022/03/31 08:02:36;;;;;;;8.98;7.88;;;;;;;;;;4982695;28;20039;-65
2022/03/31 08:05:03;;;;;;;9.57;7.88;;;;;;;;;;4974335;28;20043;-66
2022/03/31 08:07:29;;;;;;;9.93;8.10;;;;;;;;;;4970816;28;20050;-67
2022/03/31 08:09:55;;;;;;;9.23;7.88;;;;;;;;;;4971087;28;20507;-63
2022/03/31 08:12:22;;;;;;;10.73;8.63;;;;;;;;;;4977878;28;20048;-67
2022/03/31 08:14:48;;;;;;;9.77;8.65;;;;;;;;;;4995917;28;20077;-68
2022/03/31 08:17:14;;;;;;;10.02;8.18;;;;;;;;;;4987746;28;20077;-66
2022/03/31 08:19:40;;;;;;;10.95;8.57;;;;;;;;;;4986328;28;20474;-68
2022/03/31 08:22:06;;;;;;;8.48;7.50;;;;;;;;;;4990887;28;20046;-68
2022/03/31 08:24:32;;;;;;;8.90;7.63;;;;;;;;;;4991343;28;20042;-65
2022/03/31 08:26:58;;;;;;;8.32;7.43;;;;;;;;;;4985858;28;20102;-64
2022/03/31 08:29:27;;;;;;;8.52;7.50;;;;;;;;;;4991694;28;20053;-63
2022/03/31 08:31:55;;;;;;;8.48;7.28;;;;;;;;;;4986256;28;20050;-64
2022/03/31 08:34:21;;;;;;;7.60;6.70;;;;;;;;;;4989305;28;20045;-63
2022/03/31 08:36:47;;;;;;;7.93;6.97;;;;;;;;;;4990367;28;20497;-65
2022/03/31 08:39:13;;;;;;;8.27;7.30;;;;;;;;;;4978002;28;20081;-65
2022/03/31 08:41:40;;;;;;;8.10;7.05;;;;;;;;;;4984606;28;20161;-64
2022/03/31 08:44:06;;;;;;;8.55;7.25;;;;;;;;;;4984048;28;20221;-64
2022/03/31 08:46:34;;;;;;;8.63;6.97;;;;;;;;;;4985242;28;20417;-64
2022/03/31 08:49:00;;;;;;;8.00;7.20;;;;;;;;;;4982337;28;20081;-64
2022/03/31 08:51:26;;;;;;;7.45;6.55;;;;;;;;;;4974126;28;20046;-66
2022/03/31 08:53:53;;;;;;;6.63;5.78;;;;;;;;;;4984539;28;20057;-65
2022/03/31 08:56:19;;;;;;;7.18;6.47;;;;;;;;;;4981376;28;20069;-68
2022/03/31 08:58:46;;;;;;;6.85;6.18;;;;;;;;;;4987308;28;20038;-68
2022/03/31 09:01:16;;;;;;;7.50;6.70;;;;;;;;;;5005030;28;20046;-67
2022/03/31 09:03:42;;;;;;;6.60;5.90;;;;;;;;;;4989166;28;20046;-68
2022/03/31 09:06:09;;;;;;;5.90;5.30;;;;;;;;;;5001931;28;20047;-65
2022/03/31 09:08:35;;;;;;;6.80;5.55;;;;;;;;;;4985724;28;20054;-65
2022/03/31 09:11:03;;;;;;;5.38;4.88;;;;;;;;;;4991752;28;20050;-66
2022/03/31 09:13:36;;;;;;;6.13;4.90;;;;;;;;;;4979315;28;20058;-68
2022/03/31 09:16:02;;;;;;;;;;;;;;;;;;4988782;28;20111;-66
2022/03/31 09:18:28;;;;;;;5.13;4.50;;;;;;;;;;4983385;28;20572;-67
2022/03/31 09:20:56;;;;;;;6.07;4.55;;;;;;;;;;4985501;28;20096;-65
2022/03/31 09:23:23;;;;;;;6.05;4.15;;;;;;;;;;4985326;28;20042;-65
2022/03/31 09:25:51;;;;;;;4.70;3.53;;;;;;;;;;4980447;28;20636;-66
2022/03/31 09:28:22;;;;;;;4.10;3.63;;;;;;;;;;4988496;28;20404;-65
2022/03/31 09:30:50;;;;;;;4.15;3.58;;;;;;;;;;4982576;28;20121;-65
2022/03/31 09:33:33;;;;;;;3.25;2.95;;;;;;;;;;4986471;28;20432;-66
2022/03/31 09:36:12;;;;;;;3.78;3.35;;;;;;;;;;4986872;28;20050;-66
2022/03/31 09:38:38;;;;;;;5.15;3.30;;;;;;;;;;4981624;28;20070;-69
2022/03/31 09:41:17;;;;;;;4.80;3.40;;;;;;;;;;4986784;28;20045;-67
2022/03/31 09:43:43;;;;;;;3.53;3.22;;;;;;;;;;4982852;28;20631;-65
2022/03/31 09:46:24;;;;;;;3.92;3.33;;;;;;;;;;4980330;28;20076;-67
2022/03/31 09:48:51;;;;;;;4.25;3.70;;;;;;;;;;4982075;28;20035;-66
2022/03/31 09:51:18;;;;;;;4.80;3.20;;;;;;;;;;4986342;28;20097;-65
2022/03/31 09:53:46;;;;;;;4.05;3.40;;;;;;;;;;4987860;28;20559;-66
2022/03/31 09:56:13;;;;;;;3.72;3.30;;;;;;;;;;4987037;28;20046;-66
2022/03/31 09:58:39;;;;;;;4.60;3.40;;;;;;;;;;4993253;28;20041;-67
2022/03/31 10:01:06;;;;;;;3.92;3.55;;;;;;;;;;4987212;28;20039;-64
2022/03/31 10:03:33;;;;;;;5.03;3.10;;;;;;;;;;4993532;28;20042;-63
2022/03/31 10:06:00;;;;;;;3.72;3.20;;;;;;;;;;4988261;28;20500;-65
2022/03/31 10:08:27;;;;;;;2.95;2.65;;;;;;;;;;4978342;28;20042;-64
2022/03/31 10:10:53;;;;;;;3.33;3.03;;;;;;;;;;4993390;28;20046;-63
2022/03/31 10:13:23;;;;;;;3.95;3.17;;;;;;;;;;4994066;28;20445;-65
2022/03/31 10:15:55;;;;;;;3.13;2.53;;;;;;;;;;4988007;28;20042;-66
2022/03/31 10:18:21;;;;;;;4.63;2.95;;;;;;;;;;4989468;28;20129;-64
2022/03/31 10:20:58;;;;;;;3.58;3.20;;;;;;;;;;4993963;28;20045;-64
2022/03/31 10:26:20;;;;;;;4.47;4.00;;;;;;;;;;4986214;28;20046;-65
2022/03/31 10:29:00;;;;;;;5.10;3.67;;;;;;;;;;4985695;28;20046;-63
2022/03/31 10:31:36;;;;;;;4.20;3.45;;;;;;;;;;4993762;28;20735;-65
2022/03/31 10:34:03;;;;;;;5.05;4.15;;;;;;;;;;4992748;28;20039;-66
2022/03/31 10:36:40;;;;;;;4.15;3.63;;;;;;;;;;4985696;28;20046;-66
2022/03/31 10:39:08;;;;;;;4.60;4.10;;;;;;;;;;4984592;28;20639;-66
2022/03/31 10:41:38;;;;;;;4.90;4.20;;;;;;;;;;4986669;28;20481;-67
2022/03/31 10:44:16;;;;;;;5.18;4.30;;;;;;;;;;4976138;28;20063;-66
2022/03/31 10:46:45;;;;;;;4.45;3.70;;;;;;;;;;4989664;28;20050;-66
2022/03/31 10:49:19;;;;;;;4.13;3.72;;;;;;;;;;4985330;28;20527;-66
2022/03/31 10:51:46;;;;;;;5.07;4.10;;;;;;;;;;4979977;28;20070;-66
2022/03/31 10:54:23;;;;;;;4.25;3.55;;;;;;;;;;4990275;28;20042;-66
2022/03/31 10:56:49;;;;;;;4.78;4.00;;;;;;;;;;4992364;28;20092;-66
2022/03/31 10:59:17;;;;;;;4.68;3.90;;;;;;;;;;4983777;28;20123;-67
2022/03/31 11:01:49;;;;;;;4.32;3.78;;;;;;;;;;4982839;28;20039;-70
2022/03/31 11:04:15;;;;;;;3.80;3.40;;;;;;;;;;4986745;28;20041;-68
2022/03/31 11:06:51;;;;;;;4.18;3.47;;;;;;;;;;4980731;28;20049;-65
2022/03/31 11:09:21;;;;;;;4.78;3.65;;;;;;;;;;4985472;28;20396;-64
2022/03/31 11:11:53;;;;;;;3.75;3.42;;;;;;;;;;4982608;28;20062;-65
2022/03/31 11:14:19;;;;;;;4.30;3.30;;;;;;;;;;4981407;28;20093;-66
2022/03/31 11:16:46;;;;;;;3.55;3.10;;;;;;;;;;5003489;28;20065;-67
2022/03/31 11:19:13;;;;;;;4.30;3.53;;;;;;;;;;4980275;28;20042;-69
2022/03/31 11:21:41;;;;;;;3.75;3.22;;;;;;;;;;4988759;28;20066;-65
2022/03/31 11:24:07;;;;;;;3.50;2.95;;;;;;;;;;4976888;28;20039;-71
2022/03/31 11:26:46;;;;;;;3.25;2.95;;;;;;;;;;4983258;28;20042;-69
2022/03/31 11:29:13;;;;;;;3.58;3.22;;;;;;;;;;4986280;28;20413;-67
2022/03/31 11:31:50;;;;;;;4.75;3.03;;;;;;;;;;4987909;28;20053;-66
2022/03/31 11:34:22;;;;;;;3.25;2.92;;;;;;;;;;4991613;28;20477;-68
2022/03/31 11:36:48;;;;;;;3.70;3.30;;;;;;;;;;4977729;28;20113;-73
2022/03/31 11:39:14;;;;;;;4.72;3.53;;;;;;;;;;4972410;28;20093;-66
2022/03/31 11:41:42;;;;;;;3.95;3.42;;;;;;;;;;4983769;28;20042;-70
2022/03/31 11:44:08;;;;;;;4.40;3.42;;;;;;;;;;4983386;28;20058;-68
2022/03/31 11:46:40;;;;;;;4.68;4.18;;;;;;;;;;4993417;28;20077;-66
2022/03/31 11:49:13;;;;;;;5.07;4.03;;;;;;;;;;4983230;28;20501;-65
2022/03/31 11:51:39;;;;;;;5.32;4.57;;;;;;;;;;4994159;28;20141;-68
2022/03/31 11:54:09;;;;;;;4.95;4.28;;;;;;;;;;4974880;28;20137;-70
2022/03/31 11:56:35;;;;;;;5.55;4.47;;;;;;;;;;4983458;28;20073;-70
2022/03/31 11:59:03;;;;;;;8.85;4.93;;;;;;;;;;5003451;28;20042;-66
2022/03/31 12:01:47;;;;;;;5.25;4.35;;;;;;;;;;4989662;28;20050;-66
2022/03/31 12:04:19;;;;;;;6.13;4.72;;;;;;;;;;4991234;28;20169;-66
2022/03/31 12:06:45;;;;;;;;;;;;;;;;;;4997857;28;20059;-65
2022/03/31 12:09:11;;;;;;;6.07;4.70;;;;;;;;;;4983712;28;19922;-67
2022/03/31 12:11:37;;;;;;;4.80;3.90;;;;;;;;;;4981520;28;20630;-65
2022/03/31 12:14:03;;;;;;;5.47;4.80;;;;;;;;;;4971847;28;20047;-66
2022/03/31 12:16:29;;;;;;;5.28;4.53;;;;;;;;;;4971434;28;20137;-65
2022/03/31 12:18:56;;;;;;;5.90;4.85;;;;;;;;;;4987198;28;20443;-68
2022/03/31 12:21:24;;;;;;;5.05;4.50;;;;;;;;;;5002744;28;20041;-68
2022/03/31 12:23:50;;;;;;;5.88;4.85;;;;;;;;;;4975508;28;20049;-67
2022/03/31 12:26:18;;;;;;;5.45;4.95;;;;;;;;;;4979744;28;20034;-67
2022/03/31 12:28:45;;;;;;;5.45;4.82;;;;;;;;;;4980628;28;20046;-67
2022/03/31 12:31:27;;;;;;;6.53;5.25;;;;;;;;;;4988886;28;20097;-65
2022/03/31 12:33:53;;;;;;;5.65;4.93;;;;;;;;;;4990526;28;20041;-65
2022/03/31 12:36:26;;;;;;;6.07;4.78;;;;;;;;;;4991303;28;20087;-67
2022/03/31 12:38:53;;;;;;;6.07;5.15;;;;;;;;;;5004588;28;20050;-64
2022/03/31 12:41:23;;;;;;;6.75;5.35;;;;;;;;;;4988752;28;20189;-67
2022/03/31 12:43:58;;;;;;;8.27;5.72;;;;;;;;;;4983101;28;20086;-70
2022/03/31 12:46:28;;;;;;;6.40;5.40;;;;;;;;;;4973238;28;20047;-70
2022/03/31 12:48:56;;;;;;;7.50;6.00;;;;;;;;;;4981800;28;20074;-68
2022/03/31 12:51:23;;;;;;;6.63;5.90;;;;;;;;;;4990007;28;20118;-68
2022/03/31 12:53:49;;;;;;;6.80;5.45;;;;;;;;;;4988826;28;20527;-69
2022/03/31 12:56:22;;;;;;;8.35;6.05;;;;;;;;;;4987947;28;20412;-67
2022/03/31 12:58:48;;;;;;;7.65;6.85;;;;;;;;;;4989046;28;20046;-69
2022/03/31 13:01:15;;;;;;;8.38;6.57;;;;;;;;;;4985950;28;20046;-69
2022/03/31 13:03:42;;;;;;;10.23;7.22;;;;;;;;;;4973046;28;20121;-70
2022/03/31 13:06:14;;;;;;;9.05;6.93;;;;;;;;;;4977871;28;20058;-70
2022/03/31 13:08:40;;;;;;;9.17;7.40;;;;;;;;;;4969578;28;20035;-67
2022/03/31 13:11:06;;;;;;;9.40;7.88;;;;;;;;;;4971274;28;20101;-68
2022/03/31 13:13:32;;;;;;;9.60;8.10;;;;;;;;;;4970517;28;20509;-69
2022/03/31 13:15:58;;;;;;;10.40;8.13;;;;;;;;;;4994512;28;20039;-68
2022/03/31 13:18:24;;;;;;;10.07;8.18;;;;;;;;;;5005070;28;20181;-66
2022/03/31 13:20:50;;;;;;;12.75;9.25;;;;;;;;;;4975300;28;20519;-67
2022/03/31 13:23:16;;;;;;;11.40;8.68;;;;;;;;;;4970050;28;20038;-69
2022/03/31 13:25:42;;;;;;;13.07;9.85;;;;;;;;;;4980901;28;20039;-66
2022/03/31 13:28:09;;;;;;;14.18;10.68;;;;;;;;;;4995728;28;20062;-67
2022/03/31 13:30:35;;;;;;;14.57;11.55;;;;;;;;;;4977777;28;20042;-67
2022/03/31 13:33:01;;;;;;;16.08;11.40;;;;;;;;;;4980902;28;20112;-68
2022/03/31 13:35:28;;;;;;;15.32;12.05;;;;;;;;;;4982255;28;20038;-69
2022/03/31 13:37:55;;;;;;;16.40;12.10;;;;;;;;;;4980305;28;20081;-66
2022/03/31 13:40:21;;;;;;;21.10;13.68;;;;;;;;;;4978296;28;20050;-68
2022/03/31 13:42:47;;;;;;;19.65;13.68;;;;;;;;;;4977100;28;20066;-68
2022/03/31 13:45:15;;;;;;;19.20;14.30;;;;;;;;;;4977317;28;20109;-68
2022/03/31 13:47:46;;;;;;;19.30;14.00;;;;;;;;;;4970700;28;20185;-66
2022/03/31 13:50:17;;;;;;;21.65;14.88;;;;;;;;;;4970753;28;20134;-66
2022/03/31 13:52:43;;;;;;;20.10;14.55;;;;;;;;;;4970026;28;20130;-72
2022/03/31 13:55:10;;;;;;;21.08;15.05;;;;;;;;;;4978112;28;20182;-68
2022/03/31 14:03:07;;;;;;;22.02;14.23;;;;;;;;;;4973965;28;20121;-65
2022/03/31 14:05:33;;;;;;;19.63;13.80;;;;;;;;;;4989050;28;20042;-66
2022/03/31 14:07:59;;;;;;;22.58;14.70;;;;;;;;;;4989803;28;20404;-68
2022/03/31 14:10:25;;;;;;;20.40;15.07;;;;;;;;;;4991709;28;20042;-69
2022/03/31 14:12:51;;;;;;;20.48;14.55;;;;;;;;;;4989450;28;20054;-68
2022/03/31 14:15:17;;;;;;;17.92;14.00;;;;;;;;;;4988577;28;20078;-68
2022/03/31 14:17:43;;;;;;;21.48;15.35;;;;;;;;;;4988897;28;20046;-68
2022/03/31 14:20:10;;;;;;;23.88;16.63;;;;;;;;;;4984758;28;20038;-67
2022/03/31 14:22:36;;;;;;;22.63;15.98;;;;;;;;;;4981176;28;20035;-67
2022/03/31 14:25:03;;;;;;;25.92;15.52;;;;;;;;;;4980964;28;20378;-69
2022/03/31 14:27:30;;;;;;;23.15;15.02;;;;;;;;;;4975317;28;20046;-65
2022/03/31 14:29:56;;;;;;;22.15;15.07;;;;;;;;;;4979617;28;20050;-70
2022/03/31 14:32:22;;;;;;;22.60;14.75;;;;;;;;;;4980522;28;20497;-66
2022/03/31 14:34:48;;;;;;;20.33;14.70;;;;;;;;;;4983900;28;20053;-68
2022/03/31 14:37:14;;;;;;;20.63;14.75;;;;;;;;;;4984016;28;20046;-68
2022/03/31 14:39:41;;;;;;;21.15;14.43;;;;;;;;;;4983915;28;20042;-68
2022/03/31 14:42:07;;;;;;;19.35;14.27;;;;;;;;;;4978452;28;20078;-72
2022/03/31 14:44:33;;;;;;;17.48;12.65;;;;;;;;;;4985953;28;20058;-69
2022/03/31 14:46:59;;;;;;;17.02;12.20;;;;;;;;;;4990224;28;20054;-71
2022/03/31 14:49:25;;;;;;;18.40;12.93;;;;;;;;;;4973137;28;20054;-67
2022/03/31 14:51:53;;;;;;;16.60;11.38;;;;;;;;;;4973968;28;20489;-68
2022/03/31 14:54:20;;;;;;;14.48;11.13;;;;;;;;;;4979030;28;20166;-67
2022/03/31 14:56:47;;;;;;;15.65;11.57;;;;;;;;;;4981444;28;20043;-69
2022/03/31 14:59:13;;;;;;;15.77;10.95;;;;;;;;;;4973783;28;20397;-68
2022/03/31 15:01:39;;;;;;;20.45;11.90;;;;;;;;;;4985827;28;20175;-67
2022/03/31 15:04:07;;;;;;;16.85;10.73;;;;;;;;;;4983167;28;20047;-65